createdAt,value
2023-05-21T00:00:59.421Z,9.6250
2023-05-21T00:02:01.917Z,9.6166
2023-05-21T00:03:04.229Z,9.6446
2023-05-21T00:04:05.619Z,9.6471
2023-05-21T00:05:07.439Z,9.6329
2023-05-21T00:06:09.955Z,9.6061
2023-05-21T00:07:11.607Z,9.6189
2023-05-21T00:08:12.652Z,9.6167
2023-05-21T00:09:14.287Z,9.5356
2023-05-21T00:10:16.082Z,9.5271
2023-05-21T00:11:16.977Z,9.5372
2023-05-21T00:12:18.145Z,9.5697
2023-05-21T00:13:20.105Z,9.5693
2023-05-21T00:14:21.445Z,9.5568
2023-05-21T00:15:22.048Z,9.5811
2023-05-21T00:16:23.129Z,9.5656
2023-05-21T00:17:24.377Z,9.5486
2023-05-21T00:19:25.399Z,9.4596
2023-05-21T00:20:26.930Z,9.3786
2023-05-21T00:21:28.873Z,9.3178
2023-05-21T00:23:30.980Z,9.2884
2023-05-21T00:24:33.206Z,9.2746
2023-05-21T00:25:34.461Z,9.2846
2023-05-21T00:26:35.573Z,9.3204
2023-05-21T00:28:39.440Z,9.3463
2023-05-21T00:31:40.290Z,9.3853
2023-05-21T00:32:41.291Z,9.4092
2023-05-21T00:33:43.972Z,9.4536
2023-05-21T00:34:44.143Z,9.4869
2023-05-21T00:35:45.897Z,9.5378
2023-05-21T00:36:47.090Z,9.5787
2023-05-21T00:37:48.274Z,9.6037
2023-05-21T00:38:51.017Z,9.6259
2023-05-21T00:39:51.919Z,9.6351
2023-05-21T00:40:52.943Z,9.6341
2023-05-21T00:41:54.764Z,9.6586
2023-05-21T00:42:56.114Z,9.7709
2023-05-21T00:43:58.210Z,9.8997
2023-05-21T00:44:59.841Z,9.9746
2023-05-21T00:46:00.743Z,10.0348
2023-05-21T00:47:02.529Z,10.0689
2023-05-21T00:48:03.853Z,10.0853
2023-05-21T00:49:05.032Z,9.9972
2023-05-21T00:50:06.965Z,9.9769
2023-05-21T00:51:09.430Z,10.0192
2023-05-21T00:52:10.460Z,10.0425
2023-05-21T00:53:11.505Z,9.9860
2023-05-21T00:54:13.298Z,10.0128
2023-05-21T00:55:15.251Z,10.0507
2023-05-21T00:56:16.292Z,10.0538
2023-05-21T00:57:16.924Z,9.9877
2023-05-21T00:58:19.154Z,9.8856
2023-05-21T00:59:20.367Z,9.8404
2023-05-21T01:00:21.697Z,9.8488
2023-05-21T01:01:23.832Z,9.9400
2023-05-21T01:02:25.744Z,10.0415
2023-05-21T01:03:27.292Z,10.0989
2023-05-21T01:04:29.204Z,10.1795
2023-05-21T01:05:30.847Z,10.2537
2023-05-21T01:06:32.522Z,10.3287
2023-05-21T01:07:33.512Z,10.3870
2023-05-21T01:08:35.009Z,10.4450
2023-05-21T01:09:37.425Z,10.4964
2023-05-21T01:18:46.235Z,11.0651
2023-05-21T01:19:46.611Z,11.0575
2023-05-21T01:23:48.022Z,11.1522
2023-05-21T01:24:49.630Z,11.1702
2023-05-21T01:28:52.778Z,11.2225
2023-05-21T01:29:53.668Z,11.2675
2023-05-21T01:30:55.868Z,11.2812
2023-05-21T01:31:58.077Z,11.3152
2023-05-21T01:32:59.345Z,11.3605
2023-05-21T01:34:01.706Z,11.3583
2023-05-21T01:37:05.221Z,11.3301
2023-05-21T01:38:07.109Z,11.3228
2023-05-21T01:40:08.093Z,11.3204
2023-05-21T01:41:09.994Z,11.2980
2023-05-21T01:42:10.877Z,11.2606
2023-05-21T01:43:11.984Z,11.2394
2023-05-21T01:44:13.743Z,11.1928
2023-05-21T01:45:15.652Z,11.1990
2023-05-21T01:46:16.689Z,11.2483
2023-05-21T01:47:17.700Z,11.2657
2023-05-21T01:48:18.689Z,11.2773
2023-05-21T01:49:20.570Z,11.2796
2023-05-21T01:54:24.285Z,11.1368
2023-05-21T01:55:25.485Z,11.0962
2023-05-21T01:56:27.347Z,11.0443
2023-05-21T01:57:28.310Z,11.0214
2023-05-21T01:58:30.542Z,10.9737
2023-05-21T01:59:31.769Z,10.9302
2023-05-21T02:00:33.465Z,10.8939
2023-05-21T02:01:36.019Z,10.8337
2023-05-21T02:02:36.712Z,10.7608
2023-05-21T02:03:36.789Z,10.6927
2023-05-21T02:04:39.297Z,10.5980
2023-05-21T02:05:39.585Z,10.5552
2023-05-21T02:06:40.592Z,10.5127
2023-05-21T02:07:42.501Z,10.4510
2023-05-21T02:08:43.301Z,10.4088
2023-05-21T02:15:51.270Z,10.2879
2023-05-21T02:16:53.394Z,10.3232
2023-05-21T02:17:55.966Z,10.3381
2023-05-21T02:20:58.235Z,10.3467
2023-05-21T02:21:59.405Z,10.3259
2023-05-21T02:23:00.334Z,10.2979
2023-05-21T02:24:02.406Z,10.2754
2023-05-21T02:25:06.979Z,10.3419
2023-05-21T02:27:04.672Z,10.4523
2023-05-21T02:28:06.845Z,10.5982
2023-05-21T02:29:08.143Z,10.7486
2023-05-21T02:31:11.473Z,10.6962
2023-05-21T02:34:14.275Z,10.5090
2023-05-21T02:35:15.462Z,10.4759
2023-05-21T02:36:16.436Z,10.5130
2023-05-21T02:37:18.886Z,10.5197
2023-05-21T02:38:20.496Z,10.4324
2023-05-21T02:39:21.982Z,10.4054
2023-05-21T02:40:22.356Z,10.3531
2023-05-21T02:41:23.480Z,10.3168
2023-05-21T02:42:25.124Z,10.1753
2023-05-21T02:43:26.112Z,10.1619
2023-05-21T02:44:28.288Z,10.1338
2023-05-21T02:45:29.597Z,10.0385
2023-05-21T02:46:30.745Z,9.8785
2023-05-21T02:47:32.678Z,9.9166
2023-05-21T02:48:33.519Z,9.8691
2023-05-21T02:49:35.538Z,9.9236
2023-05-21T02:57:43.679Z,9.3356
2023-05-21T02:58:45.712Z,9.3723
2023-05-21T02:59:47.287Z,9.3626
2023-05-21T03:00:48.357Z,9.2415
2023-05-21T03:01:50.760Z,9.1052
2023-05-21T03:02:50.943Z,8.8730
2023-05-21T03:03:52.610Z,8.9380
2023-05-21T03:04:54.350Z,9.0603
2023-05-21T03:05:56.187Z,9.0947
2023-05-21T03:06:56.931Z,9.1315
2023-05-21T03:07:58.352Z,9.1452
2023-05-21T03:09:00.577Z,9.1493
2023-05-21T03:10:01.606Z,9.1801
2023-05-21T03:11:03.177Z,9.1360
2023-05-21T03:12:04.711Z,9.1370
2023-05-21T03:13:08.195Z,9.1728
2023-05-21T03:14:07.856Z,9.1845
2023-05-21T03:17:40.370Z,9.4462
2023-05-21T03:18:40.549Z,9.3826
2023-05-21T03:19:41.828Z,9.3762
2023-05-21T03:20:42.794Z,9.2172
2023-05-21T03:21:44.053Z,9.0331
2023-05-21T03:23:46.688Z,8.7130
2023-05-21T03:24:48.001Z,8.7831
2023-05-21T03:25:49.525Z,8.7831
2023-05-21T03:26:50.586Z,8.6247
2023-05-21T03:27:51.549Z,8.5955
2023-05-21T03:28:53.070Z,8.5977
2023-05-21T03:29:55.020Z,8.6306
2023-05-21T03:30:56.447Z,8.5323
2023-05-21T03:31:57.735Z,8.3414
2023-05-21T03:32:59.202Z,8.4817
2023-05-21T03:34:00.671Z,8.4919
2023-05-21T03:35:01.869Z,8.3823
2023-05-21T03:36:03.487Z,8.3194
2023-05-21T03:37:04.498Z,8.3809
2023-05-21T03:38:05.650Z,8.3324
2023-05-21T03:39:06.953Z,8.2314
2023-05-21T03:40:08.336Z,8.1510
2023-05-21T03:41:10.435Z,8.0485
2023-05-21T03:42:10.474Z,7.9788
2023-05-21T03:43:11.554Z,7.9149
2023-05-21T03:44:12.222Z,7.7943
2023-05-21T03:45:12.922Z,7.7950
2023-05-21T03:46:13.866Z,7.7737
2023-05-21T03:47:14.110Z,7.7511
2023-05-21T03:48:15.315Z,7.6891
2023-05-21T03:49:16.955Z,7.6254
2023-05-21T03:50:17.964Z,7.5950
2023-05-21T03:51:18.511Z,7.5324
2023-05-21T03:52:20.766Z,7.4739
2023-05-21T03:53:21.391Z,7.3914
2023-05-21T03:54:22.595Z,7.3467
2023-05-21T03:55:23.741Z,7.2594
2023-05-21T03:56:25.184Z,7.1848
2023-05-21T03:57:26.264Z,7.2067
2023-05-21T03:58:27.878Z,7.0852
2023-05-21T03:59:30.194Z,7.0648
2023-05-21T04:01:30.469Z,7.0131
2023-05-21T04:02:32.028Z,7.1141
2023-05-21T04:10:41.227Z,7.1043
2023-05-21T04:11:42.133Z,7.0474
2023-05-21T04:12:43.700Z,7.0734
2023-05-21T04:13:45.412Z,7.1242
2023-05-21T04:15:47.113Z,7.3671
2023-05-21T04:16:49.725Z,7.3949
2023-05-21T04:22:56.654Z,7.5194
2023-05-21T04:23:56.730Z,7.5620
2023-05-21T04:25:57.010Z,7.6108
2023-05-21T04:26:58.506Z,7.6490
2023-05-21T04:28:00.055Z,7.7057
2023-05-21T04:29:02.475Z,7.7676
2023-05-21T04:30:04.025Z,7.8352
2023-05-21T04:31:06.209Z,7.8297
2023-05-21T04:32:06.241Z,7.8845
2023-05-21T04:33:08.472Z,7.9817
2023-05-21T04:34:10.422Z,8.1358
2023-05-21T04:36:10.621Z,8.3026
2023-05-21T04:37:12.337Z,8.6342
2023-05-21T04:38:14.598Z,8.8312
2023-05-21T04:39:15.247Z,9.0565
2023-05-21T04:40:17.079Z,9.3998
2023-05-21T04:41:19.118Z,9.6728
2023-05-21T04:42:20.332Z,9.7029
2023-05-21T04:43:23.114Z,9.7428
2023-05-21T04:44:25.268Z,9.8264
2023-05-21T04:50:29.835Z,10.6206
2023-05-21T04:51:31.179Z,10.7055
2023-05-21T04:52:32.958Z,10.7765
2023-05-21T04:53:34.955Z,10.8022
2023-05-21T04:54:36.156Z,10.8133
2023-05-21T04:55:38.429Z,10.7853
2023-05-21T04:58:40.093Z,10.8846
2023-05-21T04:59:40.980Z,10.9734
2023-05-21T05:00:41.853Z,11.0669
2023-05-21T05:01:42.915Z,11.1587
2023-05-21T05:02:44.806Z,11.2072
2023-05-21T05:03:46.462Z,11.2292
2023-05-21T05:04:48.095Z,11.1435
2023-05-21T05:05:49.253Z,11.2091
2023-05-21T05:06:49.486Z,11.2364
2023-05-21T05:07:49.492Z,11.3110
2023-05-21T05:08:51.020Z,11.4356
2023-05-21T05:09:53.252Z,11.5084
2023-05-21T05:10:54.247Z,11.6030
2023-05-21T05:11:56.750Z,11.6650
2023-05-21T05:12:58.922Z,11.5866
2023-05-21T05:14:00.222Z,11.5884
2023-05-21T05:15:02.659Z,11.6111
2023-05-21T05:25:15.206Z,12.4526
2023-05-21T05:26:16.692Z,12.5212
2023-05-21T05:27:19.070Z,12.5938
2023-05-21T05:29:20.718Z,12.7344
2023-05-21T05:30:21.670Z,12.7670
2023-05-21T05:31:22.735Z,12.8546
2023-05-21T05:32:24.474Z,12.9229
2023-05-21T05:33:26.096Z,12.9652
2023-05-21T05:34:28.112Z,13.0244
2023-05-21T05:35:29.080Z,13.0603
2023-05-21T05:36:29.546Z,13.1199
2023-05-21T05:37:31.940Z,13.1626
2023-05-21T05:38:32.927Z,13.2153
2023-05-21T05:39:33.925Z,13.2569
2023-05-21T05:40:35.657Z,13.3181
2023-05-21T05:41:36.803Z,13.3797
2023-05-21T05:42:37.718Z,13.4334
2023-05-21T05:43:38.699Z,13.4878
2023-05-21T05:44:40.774Z,13.4948
2023-05-21T05:49:45.000Z,13.6814
2023-05-21T05:50:45.958Z,13.6984
2023-05-21T05:51:46.747Z,13.7759
2023-05-21T05:52:48.290Z,13.8513
2023-05-21T05:54:50.087Z,13.9367
2023-05-21T05:55:51.604Z,13.9668
2023-05-21T05:56:53.209Z,14.0248
2023-05-21T05:57:54.142Z,14.0796
2023-05-21T05:58:55.043Z,14.0879
2023-05-21T05:59:56.666Z,14.1495
2023-05-21T06:00:57.584Z,14.2129
2023-05-21T06:01:58.103Z,14.3098
2023-05-21T06:02:59.161Z,14.3624
2023-05-21T06:04:00.413Z,14.4278
2023-05-21T06:05:01.959Z,14.4783
2023-05-21T06:06:04.004Z,14.5255
2023-05-21T06:14:10.232Z,14.6290
2023-05-21T06:15:15.931Z,14.6407
2023-05-21T06:18:13.771Z,14.7825
2023-05-21T06:19:14.924Z,14.7958
2023-05-21T06:20:17.152Z,14.8332
2023-05-21T06:21:17.277Z,14.8951
2023-05-21T06:22:18.398Z,14.9125
2023-05-21T06:23:19.812Z,14.9379
2023-05-21T06:24:21.056Z,15.0249
2023-05-21T06:25:21.608Z,15.1395
2023-05-21T06:26:23.056Z,15.2744
2023-05-21T06:27:25.918Z,15.3413
2023-05-21T06:28:27.225Z,15.4971
2023-05-21T06:29:28.605Z,15.6132
2023-05-21T06:30:30.716Z,15.7594
2023-05-21T06:31:32.470Z,15.7616
2023-05-21T06:32:35.253Z,15.8637
2023-05-21T06:41:44.128Z,15.0664
2023-05-21T06:42:45.468Z,15.2467
2023-05-21T06:43:47.034Z,15.1838
2023-05-21T06:44:49.172Z,14.9372
2023-05-21T06:45:49.219Z,14.9640
2023-05-21T06:47:51.475Z,14.9773
2023-05-21T06:48:51.891Z,14.9661
2023-05-21T06:50:52.485Z,15.1597
2023-05-21T06:51:55.384Z,15.0844
2023-05-21T06:53:57.657Z,15.1677
2023-05-21T06:54:59.866Z,15.0254
2023-05-21T06:56:00.476Z,15.0465
2023-05-21T06:57:00.907Z,14.8913
2023-05-21T06:58:02.746Z,14.9876
2023-05-21T06:59:05.016Z,15.0002
2023-05-21T07:00:05.037Z,15.0549
2023-05-21T07:02:08.145Z,15.0132
2023-05-21T07:03:09.903Z,15.1697
2023-05-21T07:04:10.664Z,15.1446
2023-05-21T07:05:12.740Z,15.2603
2023-05-21T07:06:12.878Z,15.2358
2023-05-21T07:07:14.619Z,15.1742
2023-05-21T07:08:17.100Z,15.0625
2023-05-21T07:09:17.882Z,15.1309
2023-05-21T07:12:22.100Z,15.1238
2023-05-21T07:13:22.654Z,15.1684
2023-05-21T07:19:31.088Z,16.2233
2023-05-21T07:25:38.469Z,15.9538
2023-05-21T07:26:39.685Z,15.9122
2023-05-21T07:27:40.467Z,16.1240
2023-05-21T07:28:41.253Z,15.9902
2023-05-21T07:29:44.172Z,15.9504
2023-05-21T07:30:44.430Z,15.8638
2023-05-21T07:31:45.676Z,15.9461
2023-05-21T07:32:46.999Z,16.1344
2023-05-21T07:33:48.759Z,16.4328
2023-05-21T07:34:49.646Z,16.6375
2023-05-21T07:36:51.030Z,16.5865
2023-05-21T07:39:52.865Z,16.5863
2023-05-21T07:40:54.526Z,16.6498
2023-05-21T07:41:56.604Z,16.8078
2023-05-21T07:47:02.446Z,16.6473
2023-05-21T07:48:04.637Z,17.1080
2023-05-21T07:50:06.418Z,17.5496
2023-05-21T07:51:06.954Z,17.4729
2023-05-21T07:53:08.782Z,17.3561
2023-05-21T07:54:09.474Z,17.4593
2023-05-21T07:56:09.804Z,17.5937
2023-05-21T07:57:10.557Z,17.7192
2023-05-21T07:58:11.308Z,17.5903
2023-05-21T07:59:13.896Z,17.4870
2023-05-21T08:00:13.818Z,17.5382
2023-05-21T08:05:17.698Z,17.5715
2023-05-21T08:06:17.780Z,17.5610
2023-05-21T08:07:19.911Z,17.6551
2023-05-21T08:08:20.600Z,17.5029
2023-05-21T08:09:20.699Z,17.5374
2023-05-21T08:10:20.877Z,17.5709
2023-05-21T08:11:22.625Z,17.6480
2023-05-21T08:12:23.383Z,17.9043
2023-05-21T08:14:24.431Z,18.0098
2023-05-21T08:15:25.467Z,18.5480
2023-05-21T08:16:26.680Z,18.6931
2023-05-21T08:17:29.315Z,18.9934
2023-05-21T08:18:29.719Z,19.2548
2023-05-21T08:19:30.599Z,19.5578
2023-05-21T08:20:33.184Z,19.8086
2023-05-21T08:21:33.581Z,20.1632
2023-05-21T08:22:34.161Z,20.2412
2023-05-21T08:23:35.153Z,19.4809
2023-05-21T08:24:35.366Z,19.1556
2023-05-21T08:25:36.586Z,19.1395
2023-05-21T08:26:37.421Z,19.3691
2023-05-21T08:28:39.313Z,20.0319
2023-05-21T08:29:41.453Z,20.0096
2023-05-21T08:30:42.041Z,20.6024
2023-05-21T08:32:45.228Z,21.2385
2023-05-21T08:33:46.316Z,20.9574
2023-05-21T08:41:50.154Z,22.3642
2023-05-21T08:42:51.935Z,21.6881
2023-05-21T08:43:54.901Z,21.1718
2023-05-21T08:44:53.684Z,21.5317
2023-05-21T08:45:56.029Z,21.7216
2023-05-21T08:46:56.511Z,22.0963
2023-05-21T08:47:59.189Z,22.6127
2023-05-21T08:49:00.157Z,23.1386
2023-05-21T08:50:01.970Z,22.5957
2023-05-21T08:51:02.785Z,22.3179
2023-05-21T08:52:03.807Z,21.8545
2023-05-21T08:53:12.721Z,21.6006
2023-05-21T08:55:07.229Z,21.2159
2023-05-21T09:01:19.800Z,20.3577
2023-05-21T09:02:19.671Z,20.6238
2023-05-21T09:03:21.915Z,21.0320
2023-05-21T09:04:23.513Z,21.0864
2023-05-21T09:05:23.749Z,20.9890
2023-05-21T09:06:25.997Z,20.9519
2023-05-21T09:07:26.982Z,21.4697
2023-05-21T09:08:28.198Z,22.3162
2023-05-21T09:09:29.548Z,22.9518
2023-05-21T09:10:30.983Z,23.5435
2023-05-21T09:11:31.477Z,23.8162
2023-05-21T09:12:33.610Z,23.6035
2023-05-21T09:13:39.266Z,23.7324
2023-05-21T09:21:42.911Z,24.6390
2023-05-21T09:22:44.157Z,24.7604
2023-05-21T09:24:46.076Z,23.8943
2023-05-21T09:25:47.369Z,23.6169
2023-05-21T09:26:47.701Z,23.5692
2023-05-21T09:27:49.970Z,23.0827
2023-05-21T09:28:51.719Z,22.3902
2023-05-21T09:29:53.359Z,22.6721
2023-05-21T09:30:59.976Z,22.5350
2023-05-21T09:38:04.122Z,23.3931
2023-05-21T09:39:06.252Z,24.0046
2023-05-21T09:40:07.625Z,24.3544
2023-05-21T09:41:09.638Z,24.8631
2023-05-21T09:42:11.909Z,24.8424
2023-05-21T09:43:13.072Z,24.9421
2023-05-21T09:44:15.650Z,24.2761
2023-05-21T09:45:17.614Z,23.3132
2023-05-21T09:47:19.543Z,22.6936
2023-05-21T09:48:19.901Z,23.1883
2023-05-21T09:49:20.988Z,22.4135
2023-05-21T09:50:23.247Z,22.8274
2023-05-21T09:51:23.463Z,23.1236
2023-05-21T09:52:23.589Z,22.9038
2023-05-21T09:53:25.225Z,23.1072
2023-05-21T09:54:26.625Z,22.6243
2023-05-21T09:55:28.325Z,22.5432
2023-05-21T09:56:29.639Z,22.9738
2023-05-21T09:57:29.670Z,22.9538
2023-05-21T09:58:31.549Z,22.7621
2023-05-21T09:59:33.472Z,23.0750
2023-05-21T10:00:34.155Z,22.9415
2023-05-21T10:01:35.647Z,22.8819
2023-05-21T10:02:38.153Z,23.3592
2023-05-21T10:03:39.989Z,23.8540
2023-05-21T10:04:41.321Z,24.0877
2023-05-21T10:05:42.406Z,24.3972
2023-05-21T10:06:44.324Z,24.5012
2023-05-21T10:07:46.403Z,24.8058
2023-05-21T10:10:49.211Z,25.0283
2023-05-21T10:11:49.474Z,24.9367
2023-05-21T10:13:50.986Z,24.5695
2023-05-21T10:15:51.888Z,24.3611
2023-05-21T10:16:53.942Z,24.5223
2023-05-21T10:17:55.533Z,24.4831
2023-05-21T10:18:56.707Z,24.6135
2023-05-21T10:19:58.133Z,24.9053
2023-05-21T10:20:58.385Z,24.4650
2023-05-21T10:21:59.339Z,23.9259
2023-05-21T10:23:00.606Z,23.8127
2023-05-21T10:24:01.194Z,23.8023
2023-05-21T10:25:01.782Z,23.8011
2023-05-21T10:26:04.019Z,23.7710
2023-05-21T10:27:04.097Z,23.7545
2023-05-21T10:28:07.166Z,23.5418
2023-05-21T10:30:11.827Z,23.2195
2023-05-21T10:35:12.376Z,23.4650
2023-05-21T10:36:13.922Z,23.4952
2023-05-21T10:38:15.252Z,24.1404
2023-05-21T10:41:29.918Z,24.3273
2023-05-21T10:49:33.106Z,25.5712
2023-05-21T10:50:33.712Z,25.4053
2023-05-21T10:51:35.075Z,25.0374
2023-05-21T10:52:37.245Z,25.3070
2023-05-21T10:53:37.935Z,25.2768
2023-05-21T10:54:38.541Z,25.0433
2023-05-21T10:55:38.958Z,25.0281
2023-05-21T10:56:39.644Z,24.5641
2023-05-21T10:57:41.911Z,24.0232
2023-05-21T11:00:43.730Z,23.1610
2023-05-21T11:01:45.858Z,23.0089
2023-05-21T11:02:46.759Z,22.6845
2023-05-21T11:04:48.082Z,23.3923
2023-05-21T11:05:48.920Z,23.6679
2023-05-21T11:06:49.762Z,23.7680
2023-05-21T11:07:51.207Z,24.0718
2023-05-21T11:08:53.788Z,24.4117
2023-05-21T11:09:53.015Z,24.5792
2023-05-21T11:10:53.262Z,24.6775
2023-05-21T11:16:59.715Z,23.6429
2023-05-21T11:18:01.775Z,23.7410
2023-05-21T11:19:03.855Z,23.5076
2023-05-21T11:21:04.567Z,23.2803
2023-05-21T11:22:07.235Z,23.5024
2023-05-21T11:23:07.745Z,23.9057
2023-05-21T11:24:08.040Z,23.8452
2023-05-21T11:25:10.003Z,23.7703
2023-05-21T11:26:12.105Z,23.7513
2023-05-21T11:28:14.107Z,24.3250
2023-05-21T11:29:15.031Z,24.1413
2023-05-21T11:30:16.170Z,23.8893
2023-05-21T11:31:17.829Z,23.9482
2023-05-21T11:32:19.085Z,24.2117
2023-05-21T11:33:20.299Z,23.9475
2023-05-21T11:34:22.747Z,24.1738
2023-05-21T11:35:22.835Z,24.3585
2023-05-21T11:36:24.071Z,24.4331
2023-05-21T11:37:27.543Z,24.2867
2023-05-21T11:39:27.681Z,24.5453
2023-05-21T11:47:36.728Z,25.2204
2023-05-21T11:49:37.223Z,25.3265
2023-05-21T11:50:38.304Z,25.2342
2023-05-21T11:51:38.369Z,25.1704
2023-05-21T11:52:39.797Z,25.1449
2023-05-21T11:53:44.028Z,25.1491
2023-05-21T11:54:41.995Z,25.4325
2023-05-21T11:56:45.846Z,25.6097
2023-05-21T11:57:47.293Z,25.9227
2023-05-21T11:58:48.111Z,25.6714
2023-05-21T11:59:49.985Z,26.0410
2023-05-21T12:00:52.635Z,25.9923
2023-05-21T12:01:54.134Z,26.2215
2023-05-21T12:02:54.895Z,26.3965
2023-05-21T12:03:56.858Z,26.4445
2023-05-21T12:04:59.150Z,26.4810
2023-05-21T12:06:00.456Z,26.9201
2023-05-21T12:07:01.738Z,27.0189
2023-05-21T12:08:02.126Z,26.9474
2023-05-21T12:09:03.186Z,27.1288
2023-05-21T12:10:04.171Z,26.8865
2023-05-21T12:11:04.858Z,27.2578
2023-05-21T12:15:06.501Z,26.8983
2023-05-21T12:16:07.323Z,27.0904
2023-05-21T12:18:07.451Z,26.7695
2023-05-21T12:19:07.633Z,26.6624
2023-05-21T12:20:08.326Z,26.5959
2023-05-21T12:22:11.408Z,26.7296
2023-05-21T12:23:13.438Z,26.4397
2023-05-21T12:24:14.152Z,25.9510
2023-05-21T12:25:15.257Z,25.8034
2023-05-21T12:26:18.178Z,25.3547
2023-05-21T12:27:19.986Z,26.0297
2023-05-21T12:33:25.323Z,26.3915
2023-05-21T12:34:28.036Z,26.4178
2023-05-21T12:37:31.006Z,26.1727
2023-05-21T12:39:31.442Z,25.9306
2023-05-21T12:40:32.965Z,25.7592
2023-05-21T12:41:34.338Z,25.7945
2023-05-21T12:42:34.826Z,25.5522
2023-05-21T12:43:36.268Z,24.9315
2023-05-21T12:44:38.672Z,25.2696
2023-05-21T12:45:41.312Z,25.5673
2023-05-21T12:46:41.456Z,25.5344
2023-05-21T12:53:50.399Z,25.1687
2023-05-21T12:54:51.718Z,25.3221
2023-05-21T12:55:53.638Z,25.1542
2023-05-21T12:56:56.234Z,25.3411
2023-05-21T12:57:56.972Z,25.4659
2023-05-21T12:59:57.670Z,24.8545
2023-05-21T13:00:59.434Z,24.7926
2023-05-21T13:01:59.631Z,25.3279
2023-05-21T13:03:59.608Z,25.7145
2023-05-21T13:04:59.908Z,25.6965
2023-05-21T13:06:01.987Z,25.4240
2023-05-21T13:07:04.824Z,25.5535
2023-05-21T13:08:04.769Z,25.9812
2023-05-21T13:09:06.382Z,26.2491
2023-05-21T13:10:07.946Z,26.0624
2023-05-21T13:11:10.676Z,26.0993
2023-05-21T13:12:12.726Z,25.7514
2023-05-21T13:14:14.275Z,26.1026
2023-05-21T13:20:19.178Z,25.8506
2023-05-21T13:21:21.089Z,25.6182
2023-05-21T13:22:22.024Z,25.4906
2023-05-21T13:23:24.881Z,25.3745
2023-05-21T13:28:28.155Z,25.2830
2023-05-21T13:29:30.051Z,24.8262
2023-05-21T13:30:30.944Z,24.9615
2023-05-21T13:31:32.742Z,25.3513
2023-05-21T13:32:33.204Z,25.3937
2023-05-21T13:33:35.151Z,25.4746
2023-05-21T13:34:36.150Z,25.2583
2023-05-21T13:35:36.214Z,25.8125
2023-05-21T13:36:37.081Z,26.0673
2023-05-21T13:37:37.064Z,25.6180
2023-05-21T13:38:38.549Z,26.0964
2023-05-21T13:39:39.766Z,26.3587
2023-05-21T13:40:40.365Z,27.0221
2023-05-21T13:41:41.054Z,26.6898
2023-05-21T13:42:41.143Z,26.7003
2023-05-21T13:43:43.686Z,26.2985
2023-05-21T13:44:44.478Z,26.4322
2023-05-21T13:51:51.492Z,24.8427
2023-05-21T13:52:53.676Z,24.9532
2023-05-21T13:53:55.602Z,25.1498
2023-05-21T13:54:55.013Z,24.8933
2023-05-21T13:56:55.412Z,24.6713
2023-05-21T13:57:56.058Z,24.4808
2023-05-21T13:58:56.588Z,24.3447
2023-05-21T13:59:57.246Z,24.0858
2023-05-21T14:01:59.854Z,24.6010
2023-05-21T14:03:01.594Z,24.4901
2023-05-21T14:04:02.243Z,23.7326
2023-05-21T14:05:05.218Z,23.8453
2023-05-21T14:06:06.327Z,24.0630
2023-05-21T14:07:07.600Z,23.3795
2023-05-21T14:09:10.876Z,24.5753
2023-05-21T14:10:12.544Z,24.1379
2023-05-21T14:11:12.852Z,24.0631
2023-05-21T14:12:14.869Z,24.0411
2023-05-21T14:13:19.970Z,24.4188
2023-05-21T14:14:17.532Z,25.0935
2023-05-21T14:15:18.379Z,25.1633
2023-05-21T14:16:20.289Z,25.7152
2023-05-21T14:17:22.433Z,25.9585
2023-05-21T14:18:23.842Z,26.7071
2023-05-21T14:19:24.873Z,26.9011
2023-05-21T14:20:24.889Z,27.1813
2023-05-21T14:21:26.389Z,27.6183
2023-05-21T14:22:26.641Z,27.3803
2023-05-21T14:24:34.361Z,27.6194
2023-05-21T14:29:33.162Z,26.7023
2023-05-21T14:30:33.921Z,26.6568
2023-05-21T14:31:36.092Z,26.7699
2023-05-21T14:32:36.693Z,26.6791
2023-05-21T14:33:37.706Z,26.5379
2023-05-21T14:36:41.983Z,26.8522
2023-05-21T14:37:42.604Z,26.6349
2023-05-21T14:38:43.844Z,26.9495
2023-05-21T14:40:44.101Z,26.9450
2023-05-21T14:41:46.106Z,26.4755
2023-05-21T14:42:48.212Z,26.6363
2023-05-21T14:43:48.786Z,27.0180
2023-05-21T14:44:49.304Z,26.9473
2023-05-21T14:45:50.683Z,27.1744
2023-05-21T14:46:50.703Z,26.7448
2023-05-21T14:47:52.088Z,26.3104
2023-05-21T14:48:53.881Z,26.5544
2023-05-21T14:49:54.844Z,26.3937
2023-05-21T14:50:56.292Z,26.3505
2023-05-21T14:51:58.223Z,25.8867
2023-05-21T14:52:58.546Z,25.3270
2023-05-21T14:53:59.084Z,24.8393
2023-05-21T14:55:01.129Z,24.7003
2023-05-21T14:56:01.144Z,24.5927
2023-05-21T14:57:01.416Z,24.3034
2023-05-21T14:58:03.507Z,24.0005
2023-05-21T14:59:04.958Z,23.9076
2023-05-21T15:00:05.535Z,23.7510
2023-05-21T15:01:06.407Z,23.6721
2023-05-21T15:02:07.193Z,23.4278
2023-05-21T15:03:07.728Z,22.9648
2023-05-21T15:04:08.336Z,23.1369
2023-05-21T15:05:09.552Z,23.1368
2023-05-21T15:07:10.864Z,23.0309
2023-05-21T15:08:12.244Z,22.9670
2023-05-21T15:09:12.991Z,22.9013
2023-05-21T15:10:16.598Z,22.7808
2023-05-21T15:11:16.900Z,22.9753
2023-05-21T15:12:18.317Z,23.0095
2023-05-21T15:14:20.312Z,23.5207
2023-05-21T15:15:20.936Z,23.6645
2023-05-21T15:16:22.220Z,23.4343
2023-05-21T15:18:25.734Z,24.2750
2023-05-21T15:19:26.252Z,24.8657
2023-05-21T15:20:27.090Z,25.1490
2023-05-21T15:21:29.107Z,24.9745
2023-05-21T15:22:30.497Z,25.2545
2023-05-21T15:24:32.649Z,26.2584
2023-05-21T15:25:33.867Z,25.7738
2023-05-21T15:26:34.694Z,26.6479
2023-05-21T15:27:35.573Z,26.8101
2023-05-21T15:28:37.500Z,27.3574
2023-05-21T15:29:38.171Z,27.6710
2023-05-21T15:30:38.886Z,27.3787
2023-05-21T15:31:39.429Z,27.2237
2023-05-21T15:33:40.622Z,28.4841
2023-05-21T15:34:40.662Z,29.1204
2023-05-21T15:35:43.661Z,29.2144
2023-05-21T15:37:44.808Z,28.9002
2023-05-21T15:38:45.262Z,29.2485
2023-05-21T15:40:47.909Z,29.2434
2023-05-21T15:41:49.017Z,29.8187
2023-05-21T15:42:49.641Z,29.6316
2023-05-21T15:43:51.318Z,30.0317
2023-05-21T15:44:52.238Z,30.4707
2023-05-21T15:45:53.266Z,30.5469
2023-05-21T15:46:53.084Z,30.3613
2023-05-21T15:47:54.240Z,29.8677
2023-05-21T15:48:55.948Z,30.4767
2023-05-21T15:49:58.132Z,30.9551
2023-05-21T15:50:58.632Z,31.1667
2023-05-21T15:51:59.981Z,31.3160
2023-05-21T15:53:01.720Z,31.6944
2023-05-21T15:57:34.196Z,30.6719
2023-05-21T15:58:39.025Z,30.5409
2023-05-21T16:07:44.528Z,33.3587
2023-05-21T16:08:45.977Z,32.6725
2023-05-21T16:09:48.290Z,32.6201
2023-05-21T16:10:50.265Z,32.2242
2023-05-21T16:11:52.180Z,31.5722
2023-05-21T16:12:52.363Z,31.7253
2023-05-21T16:13:54.178Z,31.3642
2023-05-21T16:18:30.409Z,29.3018
2023-05-21T16:19:32.836Z,29.5690
2023-05-21T16:21:34.212Z,29.7340
2023-05-21T16:22:34.794Z,29.7325
2023-05-21T16:23:36.510Z,29.1528
2023-05-21T16:24:37.947Z,28.3581
2023-05-21T16:25:39.996Z,27.8259
2023-05-21T16:26:41.814Z,27.1223
2023-05-21T16:28:44.506Z,26.0152
2023-05-21T16:29:46.394Z,25.5667
2023-05-21T16:30:45.976Z,25.4069
2023-05-21T16:31:47.549Z,25.2960
2023-05-21T16:32:48.790Z,25.4336
2023-05-21T16:33:49.688Z,25.4257
2023-05-21T16:34:51.241Z,25.4881
2023-05-21T16:35:54.156Z,25.6438
2023-05-21T16:36:57.166Z,25.5751
2023-05-21T16:38:58.103Z,25.7210
2023-05-21T16:39:59.634Z,25.5921
2023-05-21T16:40:59.644Z,25.8356
2023-05-21T16:42:02.393Z,25.7713
2023-05-21T16:43:04.338Z,25.7314
2023-05-21T16:52:44.730Z,27.6326
2023-05-21T16:53:44.938Z,28.0064
2023-05-21T16:55:48.190Z,28.0435
2023-05-21T16:56:48.555Z,28.5780
2023-05-21T16:58:50.476Z,27.7410
2023-05-21T17:00:51.370Z,26.9831
2023-05-21T17:01:52.005Z,26.1259
2023-05-21T17:03:53.140Z,25.9451
2023-05-21T17:04:52.999Z,26.0069
2023-05-21T17:05:54.769Z,25.9101
2023-05-21T17:06:57.010Z,25.7651
2023-05-21T17:14:06.492Z,23.0821
2023-05-21T17:15:06.942Z,22.8596
2023-05-21T17:16:07.059Z,22.6786
2023-05-21T17:17:09.139Z,22.4727
2023-05-21T17:18:10.979Z,22.4634
2023-05-21T17:19:12.157Z,22.4242
2023-05-21T17:20:13.398Z,22.0743
2023-05-21T17:21:15.180Z,22.3733
2023-05-21T17:22:17.309Z,22.6081
2023-05-21T17:23:19.015Z,22.7198
2023-05-21T17:24:21.024Z,22.9100
2023-05-21T17:25:21.630Z,23.1705